Time;durP1;ratioP1;P1;durP2;ratioP2;P2;SDS_P1;SDS_P2;PMS_P1;PMS_P2;Temp;Humidity;BMP_temperature;BMP_pressure;BME280_temperature;BME280_humidity;BME280_pressure;Samples;Min_cycle;Max_cycle;Signal;HPM_P1;HPM_P2
2022/10/19 00:01:43;;;;;;;11.10;5.20;;;;;;;6.43;100.00;67488.91;4914736;29;20060;-88
2022/10/19 00:04:08;;;;;;;13.30;5.43;;;;;;;6.39;100.00;67484.38;4903636;29;20139;-86
2022/10/19 00:06:35;;;;;;;11.18;5.80;;;;;;;6.39;100.00;67487.03;4911641;28;20044;-87
2022/10/19 00:09:08;;;;;;;10.80;5.38;;;;;;;6.35;100.00;67485.16;4910511;28;20059;-87
2022/10/19 00:11:35;;;;;;;11.02;5.07;;;;;;;6.28;100.00;67472.53;4911655;28;20044;-87
2022/10/19 00:14:02;;;;;;;9.55;5.03;;;;;;;6.23;100.00;67466.88;4910814;28;20144;-87
2022/10/19 00:16:29;;;;;;;9.40;5.25;;;;;;;;;;4910544;29;20144;-87
2022/10/19 00:18:58;;;;;;;10.35;5.68;;;;;;;;;;4905867;29;20508;-88
2022/10/19 00:21:23;;;;;;;;;;;;;;;6.19;100.00;67465.00;4914713;29;20048;-86
2022/10/19 00:23:49;;;;;;;11.95;5.18;;;;;;;;;;4911665;29;20001;-86
2022/10/19 00:26:14;;;;;;;10.27;5.10;;;;;;;6.15;100.00;67458.38;4912579;29;20530;-87
2022/10/19 00:28:40;;;;;;;11.02;5.38;;;;;;;6.19;100.00;67462.34;4914659;29;20060;-87
2022/10/19 00:31:08;;;;;;;10.90;5.50;;;;;;;;;;4915937;28;20301;-86
2022/10/19 00:33:34;;;;;;;9.27;4.80;;;;;;;6.18;100.00;67461.78;4910160;29;20075;-87
2022/10/19 00:36:00;;;;;;;15.50;5.32;;;;;;;6.15;100.00;67457.81;4912944;29;20083;-88
2022/10/19 00:38:25;;;;;;;8.63;5.15;;;;;;;;;;4916843;28;20044;-86
2022/10/19 00:40:50;;;;;;;9.15;5.05;;;;;;;6.12;100.00;67454.44;4917151;28;20102;-88
2022/10/19 00:43:26;;;;;;;12.32;5.70;;;;;;;;;;4912526;29;20044;-86
2022/10/19 00:45:51;;;;;;;8.85;5.45;;;;;;;;;;4924446;29;20067;-87
2022/10/19 00:48:30;;;;;;;9.52;4.82;;;;;;;6.04;100.00;67445.94;4911661;29;20495;-87
2022/10/19 00:50:58;;;;;;;10.65;5.78;;;;;;;6.00;100.00;67441.44;4906747;29;20115;-88
2022/10/19 00:53:26;;;;;;;11.32;5.97;;;;;;;5.96;100.00;67436.91;4923753;29;20511;-87
2022/10/19 00:55:52;;;;;;;10.63;5.63;;;;;;;;;;4906409;29;20054;-87
2022/10/19 00:58:17;;;;;;;10.65;6.18;;;;;;;5.90;100.00;67425.41;4911323;29;20044;-90
2022/10/19 01:00:42;;;;;;;10.85;6.13;;;;;;;5.89;100.00;67432.75;4911399;29;29493;-89
2022/10/19 01:03:10;;;;;;;13.02;6.57;;;;;;;5.89;100.00;67432.19;4912699;28;20083;-86
2022/10/19 01:05:37;;;;;;;13.25;6.85;;;;;;;5.85;100.00;67425.03;4910102;29;20072;-87
2022/10/19 01:08:02;;;;;;;13.57;6.50;;;;;;;;;;4917106;28;20135;-87
2022/10/19 01:10:44;;;;;;;13.13;6.80;;;;;;;5.77;100.00;67415.97;4910821;29;20113;-88
2022/10/19 01:13:19;;;;;;;13.82;6.50;;;;;;;;;;4911741;29;20076;-89
2022/10/19 01:15:50;;;;;;;15.25;7.57;;;;;;;;;;4914949;28;20054;-87
2022/10/19 01:18:22;;;;;;;19.88;7.90;;;;;;;5.71;100.00;67411.84;4911722;29;20044;-87
2022/10/19 01:20:53;;;;;;;13.75;8.32;;;;;;;;;;4914976;28;20047;-87
2022/10/19 01:23:52;;;;;;;17.65;7.97;;;;;;;5.65;100.00;67403.53;4913483;29;20048;-86
2022/10/19 01:26:35;;;;;;;16.52;8.50;;;;;;;;;;4894912;29;20063;-87
2022/10/19 01:29:38;;;;;;;23.25;9.27;;;;;;;5.39;100.00;67374.72;4907494;29;20055;-87
2022/10/19 01:32:25;;;;;;;16.77;8.70;;;;;;;5.45;100.00;67380.38;4890410;29;20198;-87
2022/10/19 01:35:13;;;;;;;25.65;9.07;;;;;;;5.43;100.00;67378.69;4909019;29;20052;-86
2022/10/19 01:38:01;;;;;;;25.63;11.00;;;;;;;5.29;100.00;67368.69;4913750;28;20079;-87
2022/10/19 01:40:34;;;;;;;24.80;9.80;;;;;;;5.43;100.00;67378.69;4913566;28;20044;-88
2022/10/19 01:43:22;;;;;;;21.83;11.40;;;;;;;5.43;100.00;67379.25;4870948;29;20057;-87
2022/10/19 01:45:54;;;;;;;26.67;10.98;;;;;;;5.40;100.00;67375.28;4902510;29;20036;-88
2022/10/19 01:48:23;;;;;;;20.70;10.23;;;;;;;5.28;100.00;67361.75;4912853;28;20047;-87
2022/10/19 01:51:06;;;;;;;20.35;10.38;;;;;;;5.37;100.00;67371.91;4905073;29;20047;-87
2022/10/19 01:53:36;;;;;;;16.77;11.20;;;;;;;;;;4914466;28;20071;-88
2022/10/19 01:56:02;;;;;;;22.05;11.95;;;;;;;;;;4916124;29;20127;-87
2022/10/19 01:58:32;;;;;;;20.10;11.02;;;;;;;5.29;100.00;67366.06;4915304;29;20638;-87
2022/10/19 02:01:02;;;;;;;18.88;11.55;;;;;;;5.24;100.00;67359.88;4913851;29;20055;-87
2022/10/19 02:03:28;;;;;;;20.88;11.52;;;;;;;5.34;100.00;67371.16;4908395;28;20050;-87
2022/10/19 02:05:53;;;;;;;24.13;12.65;;;;;;;;;;4917865;29;20446;-87
2022/10/19 02:08:42;;;;;;;24.45;12.60;;;;;;;5.32;100.00;67360.97;4918610;28;20044;-87
2022/10/19 02:11:08;;;;;;;26.88;12.75;;;;;;;5.31;100.00;67365.13;4910890;29;20107;-87
2022/10/19 02:13:35;;;;;;;21.58;11.88;;;;;;;5.29;100.00;67366.06;4910231;29;20044;-89
2022/10/19 02:16:05;;;;;;;20.92;11.52;;;;;;;5.24;100.00;67359.88;4918996;28;20044;-86
2022/10/19 02:18:39;;;;;;;15.30;11.07;;;;;;;5.19;100.00;67352.69;4896601;29;20052;-87
2022/10/19 02:21:05;;;;;;;16.83;10.35;;;;;;;5.09;100.00;67341.41;4909500;29;20044;-87
2022/10/19 02:23:30;;;;;;;14.90;10.10;;;;;;;5.11;100.00;67343.09;4910922;29;20082;-86
2022/10/19 02:25:57;;;;;;;13.95;10.15;;;;;;;5.13;100.00;67348.56;4911234;28;20088;-89
2022/10/19 02:28:23;;;;;;;12.50;9.43;;;;;;;5.07;100.00;67339.16;4911115;29;20123;-88
2022/10/19 02:30:49;;;;;;;13.50;10.50;;;;;;;5.01;100.00;67332.38;4914426;29;20054;-86
2022/10/19 02:33:14;;;;;;;15.57;10.30;;;;;;;;;;4912165;29;20048;-87
2022/10/19 02:35:40;;;;;;;16.15;10.60;;;;;;;5.01;100.00;67331.81;4909128;29;20074;-86
2022/10/19 02:38:06;;;;;;;14.23;9.95;;;;;;;;;;4907983;29;20054;-86
2022/10/19 02:40:43;;;;;;;18.40;10.07;;;;;;;4.98;100.00;67323.72;4914900;29;20040;-87
2022/10/19 02:43:10;;;;;;;16.25;11.65;;;;;;;;;;4909897;29;20047;-86
2022/10/19 02:45:43;;;;;;;16.90;11.55;;;;;;;5.01;100.00;67337.66;4907504;28;20051;-87
2022/10/19 02:48:11;;;;;;;15.38;10.63;;;;;;;;;;4912606;28;20716;-87
2022/10/19 02:50:37;;;;;;;17.02;10.73;;;;;;;4.98;100.00;67331.63;4908389;29;20063;-89
2022/10/19 02:53:02;;;;;;;20.40;11.32;;;;;;;4.95;100.00;67325.59;4910938;29;20040;-86
2022/10/19 02:55:29;;;;;;;21.88;12.38;;;;;;;4.95;100.00;67330.88;4918060;28;20127;-87
2022/10/19 02:57:56;;;;;;;25.88;12.15;;;;;;;4.92;100.00;67324.84;4908523;29;20047;-88
2022/10/19 03:00:21;;;;;;;18.45;10.73;;;;;;;-145.70;100.00;64261.84;4908535;29;20040;-87
2022/10/19 03:02:47;;;;;;;20.45;10.27;;;;;;;5.08;100.00;67340.28;4909147;28;20066;-86
2022/10/19 03:05:12;;;;;;;25.15;11.07;;;;;;;;;;4910545;29;20055;-86
2022/10/19 03:07:37;;;;;;;19.83;10.80;;;;;;;4.84;100.00;67313.19;4909064;29;20052;-87
2022/10/19 03:10:03;;;;;;;17.70;9.18;;;;;;;4.84;100.00;67313.19;4910355;29;20177;-86
2022/10/19 03:12:28;;;;;;;17.17;9.73;;;;;;;4.85;100.00;67317.50;4913287;28;20507;-87
2022/10/19 03:14:54;;;;;;;15.75;10.38;;;;;;;-145.70;100.00;64261.84;4910504;29;20169;-86
2022/10/19 03:17:19;;;;;;;12.65;9.60;;;;;;;-145.70;100.00;64261.84;4917591;28;20131;-86
2022/10/19 03:19:44;;;;;;;14.30;9.88;;;;;;;4.78;100.00;67309.03;4902943;29;20044;-88
2022/10/19 03:22:12;;;;;;;13.90;10.52;;;;;;;4.65;100.00;67292.84;4915300;29;20139;-87
2022/10/19 03:24:37;;;;;;;14.05;10.88;;;;;;;;;;4912147;28;20071;-86
2022/10/19 03:27:03;;;;;;;12.75;10.00;;;;;;;4.80;100.00;67303.94;4904322;29;20040;-87
2022/10/19 03:29:28;;;;;;;12.18;9.63;;;;;;;4.68;100.00;67296.22;4909440;29;20037;-87
2022/10/19 03:31:54;;;;;;;13.00;10.23;;;;;;;4.65;100.00;67292.84;4910437;29;20134;-86
2022/10/19 03:37:20;;;;;;;15.73;9.77;;;;;;;-145.70;100.00;64261.84;4978651;23;20064;-94
2022/10/19 03:39:54;;;;;;;13.20;10.23;;;;;;;-145.70;100.00;64261.84;4874510;28;20050;-95
2022/10/19 03:43:08;;;;;;;12.95;9.50;;;;;;;4.60;100.00;67287.19;4892749;29;20557;-94
2022/10/19 03:46:23;;;;;;;14.48;10.07;;;;;;;4.51;100.00;67277.59;4823315;29;20533;-93
2022/10/19 03:49:28;;;;;;;12.80;9.35;;;;;;;4.49;100.00;67269.53;4851583;29;20074;-94
2022/10/19 03:55:06;;;;;;;13.10;9.95;;;;;;;;;;4791159;29;20050;-95
2022/10/19 03:58:12;;;;;;;11.30;9.20;;;;;;;4.42;100.00;67269.50;4536374;29;4365455;-93
2022/10/19 04:00:53;;;;;;;14.00;9.63;;;;;;;;;;4553046;29;4161596;-96
2022/10/19 04:03:34;;;;;;;13.40;9.63;;;;;;;;;;4840156;23;3994970;-92
2022/10/19 04:06:32;;;;;;;12.18;9.88;;;;;;;4.34;100.00;67258.41;4864064;29;20040;-92
2022/10/19 04:09:25;;;;;;;12.82;10.30;;;;;;;4.34;100.00;67258.41;4792380;29;20062;-93
2022/10/19 04:12:16;;;;;;;15.85;11.52;;;;;;;4.32;100.00;67255.59;4824261;29;20125;-94
2022/10/19 04:20:17;;;;;;;15.43;11.43;;;;;;;4.28;100.00;67252.19;4909387;23;20056;-87
2022/10/19 04:22:42;;;;;;;17.10;11.75;;;;;;;4.23;100.00;67246.56;4918935;29;20039;-86
2022/10/19 04:25:10;;;;;;;16.80;12.93;;;;;;;4.27;100.00;67255.78;4925761;29;20032;-88
2022/10/19 04:27:35;;;;;;;20.10;13.10;;;;;;;4.28;100.00;67252.19;4914234;29;20044;-87
2022/10/19 04:30:00;;;;;;;19.58;13.95;;;;;;;;;;4890487;29;20040;-87
2022/10/19 04:32:25;;;;;;;19.45;13.90;;;;;;;;;;4911666;29;20071;-89
2022/10/19 04:34:51;;;;;;;25.75;13.65;;;;;;;4.28;100.00;67257.47;4910327;29;20411;-86
2022/10/19 04:37:16;;;;;;;21.73;14.32;;;;;;;;;;4907742;29;20441;-86
2022/10/19 04:39:42;;;;;;;30.98;15.73;;;;;;;4.29;100.00;67252.78;4905761;29;20053;-87
2022/10/19 04:42:07;;;;;;;22.30;15.45;;;;;;;;;;4894471;29;20147;-87
2022/10/19 04:44:33;;;;;;;21.45;15.02;;;;;;;4.24;100.00;67250.31;4909191;29;20482;-87
2022/10/19 04:46:58;;;;;;;23.02;15.10;;;;;;;4.23;100.00;67251.84;4910318;29;20108;-87
2022/10/19 04:49:23;;;;;;;19.80;14.70;;;;;;;4.23;100.00;67246.56;4911671;29;20058;-88
2022/10/19 04:51:49;;;;;;;21.75;15.70;;;;;;;4.22;100.00;67239.59;4908450;29;20071;-87
2022/10/19 04:54:14;;;;;;;21.38;14.90;;;;;;;4.21;100.00;67244.31;4912345;29;20148;-87
2022/10/19 04:56:39;;;;;;;19.48;15.40;;;;;;;;;;4907749;29;20504;-87
2022/10/19 04:59:05;;;;;;;19.65;15.48;;;;;;;;;;4910723;29;20052;-89
2022/10/19 05:01:30;;;;;;;19.27;14.57;;;;;;;4.19;100.00;67247.31;4911545;29;20054;-88
2022/10/19 05:03:59;;;;;;;20.17;14.93;;;;;;;4.18;100.00;67240.91;4912979;29;20040;-88
2022/10/19 05:06:24;;;;;;;19.10;14.55;;;;;;;4.15;100.00;67237.53;4912746;29;20044;-87
2022/10/19 05:08:50;;;;;;;20.67;15.65;;;;;;;4.10;100.00;67231.88;4910370;29;20052;-88
2022/10/19 05:11:16;;;;;;;19.67;14.93;;;;;;;;;;4909709;29;20427;-89
2022/10/19 05:13:42;;;;;;;20.10;14.65;;;;;;;4.13;100.00;67235.28;4902187;29;20168;-88
2022/10/19 05:16:09;;;;;;;19.77;14.88;;;;;;;;;;4910209;29;20555;-87
2022/10/19 05:18:35;;;;;;;17.95;15.18;;;;;;;4.13;100.00;67235.28;4910079;29;20044;-88
2022/10/19 05:21:11;;;;;;;16.45;13.43;;;;;;;4.11;100.00;67235.66;4906706;29;20050;-87
2022/10/19 05:23:38;;;;;;;17.48;13.80;;;;;;;4.12;100.00;67234.16;4908387;29;20071;-86
2022/10/19 05:26:13;;;;;;;16.35;13.45;;;;;;;4.09;100.00;67222.88;4911942;29;20095;-87
2022/10/19 05:28:39;;;;;;;17.30;13.68;;;;;;;4.07;100.00;67228.50;4909697;29;20461;-87
2022/10/19 05:31:13;;;;;;;16.92;13.13;;;;;;;3.97;100.00;67217.22;4911851;29;20127;-87
2022/10/19 05:33:40;;;;;;;18.50;14.98;;;;;;;4.01;100.00;67222.28;4908598;29;20040;-87
2022/10/19 05:36:17;;;;;;;15.52;12.70;;;;;;;4.01;100.00;67224.94;4906771;29;20499;-88
2022/10/19 05:38:44;;;;;;;15.68;11.73;;;;;;;3.93;100.00;67212.72;4910626;29;20052;-88
2022/10/19 05:41:10;;;;;;;15.57;13.27;;;;;;;;;;4910617;29;20047;-90
2022/10/19 05:43:35;;;;;;;16.65;12.93;;;;;;;3.99;100.00;67225.31;4905344;29;20040;-86
2022/10/19 05:46:13;;;;;;;16.02;12.38;;;;;;;4.01;100.00;67222.28;4909553;29;20051;-87
2022/10/19 05:48:39;;;;;;;16.15;13.88;;;;;;;3.99;100.00;67222.09;4908300;29;20040;-86
2022/10/19 05:51:06;;;;;;;16.90;13.55;;;;;;;3.97;100.00;67222.47;4910493;29;20067;-87
2022/10/19 05:53:32;;;;;;;15.63;12.48;;;;;;;;;;4903757;29;20040;-89
2022/10/19 05:55:58;;;;;;;15.52;13.18;;;;;;;4.01;100.00;67216.47;4910831;29;20044;-87
2022/10/19 05:58:24;;;;;;;14.88;12.63;;;;;;;3.98;100.00;67220.97;4909480;29;20466;-88
2022/10/19 06:00:50;;;;;;;15.77;13.20;;;;;;;;;;4905958;29;20048;-88
2022/10/19 06:03:16;;;;;;;19.10;13.13;;;;;;;3.95;100.00;67220.78;4908671;29;20408;-87
2022/10/19 06:05:41;;;;;;;18.17;12.75;;;;;;;4.00;100.00;67220.59;4909940;29;20040;-87
2022/10/19 06:08:07;;;;;;;17.05;13.32;;;;;;;;;;4908377;29;20295;-87
2022/10/19 06:10:32;;;;;;;15.85;12.50;;;;;;;4.03;100.00;67224.00;4908704;29;20412;-86
2022/10/19 06:12:57;;;;;;;14.82;12.27;;;;;;;4.03;100.00;67224.00;4907690;29;20427;-86
2022/10/19 06:15:23;;;;;;;16.75;12.68;;;;;;;4.00;100.00;67221.19;4909838;29;20152;-86
2022/10/19 06:17:48;;;;;;;17.80;13.07;;;;;;;4.00;100.00;67223.22;4908966;29;20043;-87
2022/10/19 06:20:13;;;;;;;17.42;13.55;;;;;;;4.07;100.00;67231.13;4909076;29;20336;-86
2022/10/19 06:22:39;;;;;;;17.02;12.98;;;;;;;4.12;100.00;67236.78;4910829;29;20055;-86
2022/10/19 06:25:04;;;;;;;15.02;12.40;;;;;;;4.04;100.00;67225.13;4903663;29;20040;-87
2022/10/19 06:27:30;;;;;;;19.77;13.18;;;;;;;4.10;100.00;67231.88;4905332;29;20052;-85
2022/10/19 06:29:56;;;;;;;17.90;13.38;;;;;;;4.18;100.00;67243.56;4908132;29;20055;-86
2022/10/19 06:32:21;;;;;;;17.58;14.23;;;;;;;4.23;100.00;67249.19;4908411;29;20048;-86
2022/10/19 06:34:46;;;;;;;18.20;13.55;;;;;;;4.26;100.00;67252.03;4906950;29;20040;-86
2022/10/19 06:37:12;;;;;;;17.58;14.48;;;;;;;4.26;100.00;67249.38;4901391;29;20095;-85
2022/10/19 06:39:37;;;;;;;18.13;14.45;;;;;;;4.30;100.00;67253.91;4909285;29;20052;-87
2022/10/19 06:42:03;;;;;;;18.35;13.88;;;;;;;4.36;100.00;67260.09;4925037;29;20073;-86
2022/10/19 06:44:28;;;;;;;18.77;14.23;;;;;;;4.43;100.00;67268.59;4908672;29;20048;-86
2022/10/19 06:46:53;;;;;;;17.85;14.38;;;;;;;4.45;100.00;67270.25;4922175;29;20075;-86
2022/10/19 06:49:19;;;;;;;20.50;14.50;;;;;;;4.51;100.00;67277.03;4908919;29;20511;-86
2022/10/19 06:51:44;;;;;;;19.73;16.00;;;;;;;4.54;100.00;67280.41;4907640;29;20582;-86
2022/10/19 06:54:09;;;;;;;21.83;15.52;;;;;;;4.64;100.00;67297.00;4908623;29;20043;-87
2022/10/19 06:56:35;;;;;;;22.27;18.63;;;;;;;4.70;100.00;67297.94;4908177;29;20048;-86
2022/10/19 06:59:00;;;;;;;24.40;18.25;;;;;;;4.77;100.00;67305.25;4909342;29;20627;-86
2022/10/19 07:01:25;;;;;;;22.35;18.33;;;;;;;4.91;100.00;67315.81;4910275;29;20047;-86
2022/10/19 07:03:51;;;;;;;24.13;18.10;;;;;;;4.94;100.00;67319.19;4901940;29;20070;-85
2022/10/19 07:06:17;;;;;;;33.45;20.25;;;;;;;;;;4910726;29;20041;-86
2022/10/19 07:08:42;;;;;;;25.60;16.70;;;;;;;5.12;100.00;67344.22;4909671;29;20434;-86
2022/10/19 07:11:16;;;;;;;25.80;18.13;;;;;;;5.18;100.00;67351.56;4910715;29;20341;-86
2022/10/19 07:13:41;;;;;;;22.23;17.10;;;;;;;5.25;100.00;67358.91;4924048;29;20103;-86
2022/10/19 07:16:10;;;;;;;25.75;16.40;;;;;;;5.32;100.00;67366.84;4910628;29;20104;-86
2022/10/19 07:18:37;;;;;;;25.13;18.55;;;;;;;5.43;100.00;67381.88;4908276;29;20047;-86
2022/10/19 07:21:08;;;;;;;23.67;18.80;;;;;;;5.54;100.00;67390.56;4911254;29;20400;-86
2022/10/19 07:23:35;;;;;;;26.60;20.13;;;;;;;;;;4910584;29;20075;-86
2022/10/19 07:26:15;;;;;;;26.38;20.10;;;;;;;5.76;100.00;67418.06;4908792;29;20463;-87
2022/10/19 07:28:43;;;;;;;30.42;20.63;;;;;;;5.87;100.00;67432.56;4906615;29;20910;-86
2022/10/19 07:31:11;;;;;;;27.15;22.00;;;;;;;5.99;100.00;67440.88;4910258;29;20567;-85
2022/10/19 07:33:36;;;;;;;26.98;21.45;;;;;;;6.09;100.00;67452.16;4909335;29;20524;-85
2022/10/19 07:36:05;;;;;;;28.08;20.00;;;;;;;6.23;100.00;67466.88;4912482;29;20071;-87
2022/10/19 07:38:31;;;;;;;29.55;23.42;;;;;;;;;;4911638;29;20054;-86
2022/10/19 07:41:05;;;;;;;35.55;22.70;;;;;;;6.45;100.00;67491.19;4911045;29;20045;-86
2022/10/19 07:43:30;;;;;;;32.30;24.42;;;;;;;6.57;100.00;67504.19;4908291;29;20052;-86
2022/10/19 07:46:02;;;;;;;30.55;23.02;;;;;;;6.69;100.00;67520.41;4911242;29;20415;-86
2022/10/19 07:48:28;;;;;;;32.47;23.58;;;;;;;6.83;100.00;67533.59;4909779;29;20040;-86
2022/10/19 07:50:53;;;;;;;31.75;22.75;;;;;;;;;;4912787;29;20068;-87
2022/10/19 07:53:18;;;;;;;32.22;23.63;;;;;;;6.98;100.00;67550.56;4911798;29;20148;-86
2022/10/19 07:55:44;;;;;;;31.70;21.98;;;;;;;7.10;100.00;67555.06;4912857;29;20131;-86
2022/10/19 07:58:09;;;;;;;30.48;23.27;;;;;;;;;;4912922;29;20056;-86
2022/10/19 08:00:34;;;;;;;28.55;22.02;;;;;;;7.35;100.00;67591.31;4910127;29;20351;-86
2022/10/19 08:03:00;;;;;;;27.15;20.77;;;;;;;7.50;100.00;67607.16;4913158;29;20058;-88
2022/10/19 08:05:25;;;;;;;26.85;22.80;;;;;;;;;;4912877;29;20051;-85
2022/10/19 08:07:50;;;;;;;32.30;24.65;;;;;;;;;;4911209;29;20070;-85
2022/10/19 08:10:15;;;;;;;36.28;22.40;;;;;;;;;;4913088;29;20193;-85
2022/10/19 08:12:41;;;;;;;29.80;22.08;;;;;;;7.93;100.00;67649.41;4911338;29;20063;-85
2022/10/19 08:15:06;;;;;;;28.55;20.85;;;;;;;8.02;100.00;67665.44;4912673;29;20048;-85
2022/10/19 08:17:35;;;;;;;28.10;21.08;;;;;;;8.10;100.00;67673.94;4912527;29;20044;-85
2022/10/19 08:20:02;;;;;;;34.17;21.90;;;;;;;8.17;100.00;67676.00;4911724;29;20127;-85
2022/10/19 08:22:28;;;;;;;32.90;21.92;;;;;;;8.33;100.00;67694.13;4913070;29;20042;-86
2022/10/19 08:24:53;;;;;;;23.90;19.58;;;;;;;8.37;100.00;67703.94;4912944;29;22718;-85
2022/10/19 08:27:18;;;;;;;24.30;18.73;;;;;;;8.39;100.00;67700.94;4912936;29;20044;-85
2022/10/19 08:29:44;;;;;;;24.35;17.85;;;;;;;8.47;100.00;67710.00;4911241;29;20056;-84
2022/10/19 08:32:09;;;;;;;24.52;18.13;;;;;;;8.53;100.00;67716.22;4928062;29;20389;-85
2022/10/19 08:34:35;;;;;;;29.58;18.73;;;;;;;8.64;100.00;67728.13;4913173;29;20047;-85
2022/10/19 08:37:01;;;;;;;26.77;18.25;;;;;;;8.70;100.00;67735.50;4911390;29;20048;-85
2022/10/19 08:39:27;;;;;;;26.40;19.42;;;;;;;8.80;100.00;67751.56;4911474;29;20048;-86
2022/10/19 08:42:01;;;;;;;27.38;20.30;;;;;;;8.94;100.00;67761.53;4912178;29;20052;-85
2022/10/19 08:44:42;;;;;;;23.30;17.48;;;;;;;9.08;100.00;67777.41;4912959;29;20467;-85
2022/10/19 08:47:21;;;;;;;26.23;16.58;;;;;;;9.19;100.00;67789.88;4922401;29;20052;-86
2022/10/19 08:49:47;;;;;;;21.05;15.00;;;;;;;9.21;100.00;67792.16;4910493;29;20361;-86
2022/10/19 08:52:21;;;;;;;22.98;17.00;;;;;;;;;;4912199;29;20051;-85
2022/10/19 08:54:53;;;;;;;22.80;15.02;;;;;;;9.43;100.00;67821.25;4910567;29;20052;-85
2022/10/19 08:57:37;;;;;;;21.83;14.65;;;;;;;9.59;100.00;67834.09;4925789;29;20067;-86
2022/10/19 09:00:24;;;;;;;16.42;12.05;;;;;;;9.76;100.00;67852.25;4924174;29;20059;-86
2022/10/19 09:02:49;;;;;;;15.10;11.38;;;;;;;;;;4907769;29;20075;-87
2022/10/19 09:05:21;;;;;;;12.40;11.00;;;;;;;;;;4906164;29;20080;-85
2022/10/19 09:07:50;;;;;;;11.75;7.78;;;;;;;;;;4908006;29;20305;-86
2022/10/19 09:10:19;;;;;;;14.35;6.65;;;;;;;;;;4911901;29;20397;-86
2022/10/19 09:12:44;;;;;;;;;;;;;;;;;;4910317;29;20059;-86
2022/10/19 09:15:18;;;;;;;8.00;4.80;;;;;;;10.53;100.00;67938.47;4911628;29;19925;-87
2022/10/19 09:17:43;;;;;;;10.38;4.60;;;;;;;;;;4910716;29;20044;-86
2022/10/19 09:20:17;;;;;;;10.23;4.45;;;;;;;;;;4909919;29;20115;-87
2022/10/19 09:22:43;;;;;;;12.30;4.82;;;;;;;;;;4908320;29;20048;-86
2022/10/19 09:25:20;;;;;;;5.35;3.88;;;;;;;11.08;100.00;67996.53;4908051;29;20408;-86
2022/10/19 09:27:48;;;;;;;12.63;3.55;;;;;;;11.14;100.00;68010.78;4910150;29;20123;-86
2022/10/19 09:30:18;;;;;;;12.75;3.60;;;;;;;;;;4910308;29;20056;-86
2022/10/19 09:32:43;;;;;;;11.85;3.33;;;;;;;11.38;100.00;68032.69;4911143;29;20048;-86
2022/10/19 09:35:37;;;;;;;7.25;2.97;;;;;;;11.50;100.00;68046.31;4912046;29;20074;-87
2022/10/19 09:38:04;;;;;;;10.40;3.05;;;;;;;;;;4910029;29;20091;-86
2022/10/19 09:40:29;;;;;;;7.30;2.53;;;;;;;;;;4911553;29;20435;-86
2022/10/19 09:42:56;;;;;;;4.82;1.90;;;;;;;11.71;94.49;68074.38;4910385;29;20063;-87
2022/10/19 09:45:34;;;;;;;6.70;1.80;;;;;;;11.74;93.01;68069.78;4910289;29;20135;-86
2022/10/19 09:48:04;;;;;;;3.88;1.98;;;;;;;11.92;95.23;68092.34;4908519;29;20054;-86
2022/10/19 09:50:30;;;;;;;8.18;2.22;;;;;;;11.97;93.66;68098.03;4910261;29;20495;-86
2022/10/19 09:53:01;;;;;;;7.43;1.63;;;;;;;12.07;92.62;68104.03;4906122;29;20056;-87
2022/10/19 09:55:41;;;;;;;6.38;1.40;;;;;;;12.12;91.69;68109.16;4905724;29;20037;-86
2022/10/19 09:58:12;;;;;;;2.95;1.33;;;;;;;12.23;91.82;68127.00;4873055;29;20068;-86
2022/10/19 10:00:46;;;;;;;5.22;1.17;;;;;;;12.25;89.27;68126.56;4921904;29;20639;-86
2022/10/19 10:03:30;;;;;;;8.60;1.40;;;;;;;12.18;87.24;68121.31;4910534;29;20411;-86
2022/10/19 10:06:01;;;;;;;8.02;1.20;;;;;;;12.16;87.71;68119.03;4907025;29;21071;-86
2022/10/19 10:08:30;;;;;;;5.53;1.83;;;;;;;12.16;87.95;68119.03;4911329;29;20579;-86
2022/10/19 10:11:14;;;;;;;4.72;1.58;;;;;;;12.29;88.87;68133.25;4912591;29;20132;-86
2022/10/19 10:13:42;;;;;;;4.57;1.10;;;;;;;12.32;87.54;68134.53;4921617;29;20092;-86
2022/10/19 10:16:15;;;;;;;6.20;1.08;;;;;;;12.38;86.24;68143.47;4912640;29;20340;-87
2022/10/19 14:27:53;;;;;;;8.98;2.97;;;;;;;15.94;73.45;68537.44;4798412;29;20097;-84
2022/10/19 14:30:24;;;;;;;6.28;2.70;;;;;;;15.92;71.40;68537.28;4808212;29;20055;-86
2022/10/19 14:32:49;;;;;;;4.97;2.05;;;;;;;15.83;74.23;68527.59;4857595;29;20040;-85
2022/10/19 14:35:31;;;;;;;6.13;2.40;;;;;;;15.92;75.50;68535.16;4887501;29;20278;-84
2022/10/19 14:37:57;;;;;;;7.28;2.80;;;;;;;16.00;74.25;68543.72;4890004;29;20043;-84
2022/10/19 14:40:31;;;;;;;6.32;2.10;;;;;;;15.98;73.03;68541.44;4897244;29;20052;-84
2022/10/19 14:42:59;;;;;;;4.25;1.75;;;;;;;15.93;72.62;68538.97;4894262;29;20131;-86
2022/10/19 15:43:29;;;;;;;7.03;2.25;;;;;;;14.08;81.73;68330.16;5655126;23;20438;-76
2022/10/19 15:46:03;;;;;;;8.20;2.10;;;;;;;13.95;80.87;68315.34;4904834;29;20354;-77
2022/10/19 15:48:45;;;;;;;8.82;2.28;;;;;;;13.83;80.61;68304.38;4909434;29;20087;-77
2022/10/19 15:51:35;;;;;;;5.80;2.20;;;;;;;13.70;81.45;68290.16;4909266;29;20103;-77
2022/10/19 15:54:04;;;;;;;5.82;2.00;;;;;;;13.62;84.20;68281.06;4904542;29;20653;-77
2022/10/19 15:56:32;;;;;;;6.00;2.43;;;;;;;13.54;84.27;68272.53;4902312;29;20048;-76
2022/10/19 15:58:59;;;;;;;11.13;2.60;;;;;;;13.44;85.77;68261.72;4910302;29;20047;-77
2022/10/19 16:01:27;;;;;;;7.47;3.20;;;;;;;13.31;86.39;68246.94;4903174;29;20350;-77
2022/10/19 16:03:53;;;;;;;9.52;3.72;;;;;;;13.23;87.10;68238.38;4923752;29;20488;-77
2022/10/19 16:06:19;;;;;;;7.28;4.10;;;;;;;;;;4908837;29;20053;-77
2022/10/19 16:08:45;;;;;;;6.10;3.67;;;;;;;12.98;88.59;68207.28;4915449;29;20056;-77
2022/10/19 16:11:13;;;;;;;13.65;5.30;;;;;;;;;;4910257;29;20043;-77
2022/10/19 16:13:38;;;;;;;5.95;3.15;;;;;;;12.75;88.98;68184.94;4919288;29;20039;-77
2022/10/19 16:16:06;;;;;;;5.55;3.35;;;;;;;12.69;89.68;68178.13;4922510;29;20055;-77
2022/10/19 16:18:32;;;;;;;7.10;2.80;;;;;;;12.62;90.33;68170.16;4917884;29;20265;-77
2022/10/19 16:20:57;;;;;;;7.85;3.13;;;;;;;12.62;90.17;68168.06;4929961;29;20547;-77
2022/10/19 16:23:22;;;;;;;7.65;2.75;;;;;;;12.49;90.75;68160.75;4909556;29;20044;-77
2022/10/19 16:25:48;;;;;;;7.60;2.85;;;;;;;12.34;91.06;68139.50;4911014;29;20059;-77
2022/10/19 16:28:13;;;;;;;11.00;2.78;;;;;;;;;;4909697;29;20366;-77
2022/10/19 16:30:39;;;;;;;6.53;3.38;;;;;;;12.21;91.80;68129.47;4909480;29;20048;-76
2022/10/19 16:33:04;;;;;;;8.75;4.93;;;;;;;12.13;92.98;68115.63;4912501;29;20059;-76
2022/10/19 16:35:30;;;;;;;12.43;5.68;;;;;;;12.05;92.87;68103.84;4915301;29;20411;-76
2022/10/19 16:37:55;;;;;;;9.73;3.67;;;;;;;;;;4922334;29;20059;-77
2022/10/19 16:40:20;;;;;;;7.27;3.67;;;;;;;11.91;93.31;68091.78;4907759;29;20051;-76
2022/10/19 16:42:46;;;;;;;9.93;4.90;;;;;;;11.77;92.45;68075.84;4915787;29;20284;-77
2022/10/19 16:45:11;;;;;;;11.18;4.80;;;;;;;11.71;93.40;68069.03;4909278;29;20177;-76
2022/10/19 16:47:36;;;;;;;13.88;4.68;;;;;;;11.63;93.65;68057.28;4911958;29;20192;-76
2022/10/19 16:50:04;;;;;;;13.60;6.20;;;;;;;11.48;93.27;68044.03;4914054;29;20036;-76
2022/10/19 16:52:31;;;;;;;10.98;5.18;;;;;;;11.47;94.05;68048.22;4905877;29;20058;-76
2022/10/19 16:54:57;;;;;;;13.65;5.75;;;;;;;11.40;94.48;68032.28;4914946;29;20039;-76
2022/10/19 16:57:23;;;;;;;12.07;5.45;;;;;;;11.34;94.36;68028.16;4915133;29;20051;-76
2022/10/19 16:59:49;;;;;;;8.73;4.22;;;;;;;;;;4910838;29;20048;-76
2022/10/19 17:02:15;;;;;;;10.98;5.05;;;;;;;11.21;94.50;68013.94;4913869;29;20416;-76
2022/10/19 17:04:40;;;;;;;8.77;3.97;;;;;;;11.15;94.68;68007.13;4913937;29;20047;-76
2022/10/19 17:07:05;;;;;;;7.25;4.18;;;;;;;11.18;95.58;68009.97;4912603;29;20048;-77
2022/10/19 17:09:31;;;;;;;7.13;3.70;;;;;;;11.06;94.29;68002.81;4912835;29;20036;-76
2022/10/19 17:11:56;;;;;;;6.85;4.25;;;;;;;11.05;94.76;67996.34;4923280;29;20327;-77
2022/10/19 17:14:21;;;;;;;8.63;4.30;;;;;;;11.01;94.87;67991.25;4912009;29;20036;-77
2022/10/19 17:16:47;;;;;;;11.85;4.38;;;;;;;10.93;95.26;67979.50;4914223;29;20055;-77
2022/10/19 17:19:12;;;;;;;9.43;3.67;;;;;;;10.92;94.78;67986.91;4910975;29;20048;-76
2022/10/19 17:21:38;;;;;;;11.55;4.05;;;;;;;10.92;94.76;67981.03;4905562;29;20115;-76
2022/10/19 17:24:07;;;;;;;9.23;3.15;;;;;;;10.94;94.28;67989.19;4904354;29;20054;-77